F/V Jeremi Simon — FHAF — position and weather

sailwx.info

Track history (hours):
 
Tides and Currents Weather Stations Pressure Air Temp Water Temp Dewpoint Dewpoint Depression Visibility Wind Speed Wind Dir Waves Ship Positions

F/V Jeremi Simon

Last reported at 2016-Aug-30 16:33 UTC. Time now 2016-Aug-30 17:06 UTC.
Position N 46°42' W 001°57'.

Length 20 m.

Type: Other ship. MMSI: 227415000.

Date/timePositionNaut miles runAvg speedWind from/ knotsBaromVisibWave heightAir tempDewpointWater temp
2016-Aug-30 16:33N 46°42' W 001°57'10 9.6
2016-Aug-30 15:33N 46°32' W 001°54'1010.0
2016-Aug-30 14:33N 46°22' W 001°52'1 0.7
2016-Aug-30 13:33N 46°22' W 001°52'1 1.5
2016-Aug-30 12:33N 46°21' W 001°54'2 2.2
2016-Aug-30 11:33N 46°23' W 001°52'2 2.4
2016-Aug-30 10:33N 46°20' W 001°52'5 4.6
2016-Aug-30 09:33N 46°24' W 001°48'7 7.1
2016-Aug-30 08:33N 46°17' W 001°43'3 2.7
2016-Aug-30 07:33N 46°20' W 001°42'3 2.9
2016-Aug-30 06:33N 46°23' W 001°42'2 2.0
2016-Aug-30 05:33N 46°23' W 001°44'9 8.8
2016-Aug-30 04:33N 46°30' W 001°53'9 9.4
2016-Aug-30 03:33N 46°39' W 001°56'3 3.1
2016-Aug-30 02:33N 46°42' W 001°57'0 0.0
2016-Aug-29 14:26N 46°42' W 001°57'0 0.1
2016-Aug-29 13:33N 46°42' W 001°57'3 2.9
2016-Aug-29 12:33N 46°39' W 001°57'10 9.6
2016-Aug-29 11:33N 46°30' W 001°52'9 9.3
2016-Aug-29 10:33N 46°24' W 001°42'2 1.6
2016-Aug-29 09:33N 46°22' W 001°42'1 1.0
2016-Aug-29 08:33N 46°22' W 001°44'1 0.8
2016-Aug-29 07:33N 46°23' W 001°43'19 4.9
2016-Aug-29 03:33N 46°39' W 001°57'4 0.2
2016-Aug-28 03:24N 46°36' W 001°56'6 0.1
2016-Aug-26 09:26N 46°42' W 001°57'0 0.0
2016-Aug-26 08:07N 46°42' W 001°57'0 0.0
2016-Aug-26 07:09N 46°42' W 001°57'0 0.0
2016-Aug-26 06:29N 46°42' W 001°57'0 0.0
2016-Aug-25 18:04N 46°42' W 001°57'0 0.0
2016-Aug-25 17:33N 46°42' W 001°57'0 0.0
2016-Aug-25 16:33N 46°42' W 001°57'2 1.7
2016-Aug-25 15:33N 46°40' W 001°57'6 6.3
2016-Aug-25 14:33N 46°34' W 001°55'1010.4
2016-Aug-25 13:33N 46°24' W 001°51'9 9.3
2016-Aug-25 12:33N 46°16' W 001°45'4 3.7
2016-Aug-25 11:33N 46°12' W 001°43'1 1.3
2016-Aug-25 10:33N 46°11' W 001°42'3 3.1
2016-Aug-25 09:33N 46°14' W 001°44'10 9.2
2016-Aug-25 08:31N 46°05' W 001°38'3 2.5
2016-Aug-25 07:27N 46°03' W 001°38'1 0.7
2016-Aug-25 06:33N 46°02' W 001°38'3 1.3
2016-Aug-25 04:33N 46°04' W 001°36'1 0.8
2016-Aug-25 03:33N 46°04' W 001°37'0 0.5
2016-Aug-25 02:32N 46°03' W 001°37'7 6.7
2016-Aug-25 01:33N 46°09' W 001°40'9 9.2
2016-Aug-25 00:33N 46°18' W 001°46'9 9.3
2016-Aug-24 23:33N 46°26' W 001°51'9 9.3
2016-Aug-24 22:33N 46°35' W 001°55'7 6.8
2016-Aug-24 21:33N 46°42' W 001°57'0 0.0
2016-Aug-24 20:33N 46°42' W 001°57'0 0.0
2016-Aug-24 19:33N 46°42' W 001°57'0 0.0
2016-Aug-24 18:29N 46°42' W 001°57'0 0.0
2016-Aug-24 17:32N 46°42' W 001°57'0 0.1
2016-Aug-24 16:33N 46°42' W 001°57'3 3.5
2016-Aug-24 15:33N 46°38' W 001°56'1010.2
2016-Aug-24 14:33N 46°29' W 001°51'1010.2
2016-Aug-24 13:33N 46°19' W 001°46'1010.2
2016-Aug-24 12:33N 46°10' W 001°40'7 6.8
2016-Aug-24 11:31N 46°03' W 001°37'0 0.3
2016-Aug-24 10:32N 46°03' W 001°36'1 0.6
2016-Aug-24 09:33N 46°02' W 001°37'7 6.8
2016-Aug-24 08:31N 46°09' W 001°40'3 3.0
2016-Aug-24 07:33N 46°07' W 001°37'6 5.7
2016-Aug-24 06:33N 46°12' W 001°42'20 9.8
2016-Aug-24 04:33N 46°30' W 001°52'10 9.8
2016-Aug-24 03:33N 46°39' W 001°56'2 0.2
2016-Aug-23 16:09N 46°42' W 001°57'0 0.2
2016-Aug-23 15:33N 46°42' W 001°57'2 1.6
2016-Aug-23 14:33N 46°40' W 001°57'1 1.3
2016-Aug-23 13:33N 46°39' W 001°56'1010.5
2016-Aug-23 12:33N 46°29' W 001°52'1110.6
2016-Aug-23 11:33N 46°19' W 001°47'5 4.8
2016-Aug-23 10:33N 46°15' W 001°43'1 0.9
2016-Aug-23 09:31N 46°15' W 001°44'1 1.1
2016-Aug-23 08:33N 46°16' W 001°45'1 0.6
2016-Aug-23 07:27N 46°16' W 001°45'3 3.2
2016-Aug-23 06:34N 46°14' W 001°43'3 3.0
2016-Aug-23 05:34N 46°16' W 001°45'10 9.6
2016-Aug-23 04:33N 46°25' W 001°50'10 9.7
2016-Aug-23 03:34N 46°35' W 001°54'7 7.3
2016-Aug-23 02:33N 46°42' W 001°57'0 0.0
2016-Aug-23 01:34N 46°42' W 001°57'0 0.0
2016-Aug-23 00:34N 46°42' W 001°57'0 0.0
2016-Aug-22 23:34N 46°42' W 001°57'0 0.0
2016-Aug-22 22:33N 46°42' W 001°57'0 0.0
2016-Aug-22 21:33N 46°42' W 001°57'0 0.1
2016-Aug-22 20:33N 46°42' W 001°57'0 0.0
2016-Aug-22 19:33N 46°42' W 001°57'8 7.8
2016-Aug-22 18:34N 46°34' W 001°54'10 9.8
2016-Aug-22 17:33N 46°25' W 001°49'10 9.5
2016-Aug-22 16:33N 46°16' W 001°43'2 2.5
2016-Aug-22 15:33N 46°14' W 001°43'0 0.1
2016-Aug-22 14:34N 46°14' W 001°44'2 2.3
2016-Aug-22 13:33N 46°11' W 001°43'12 5.2
2016-Aug-22 11:15N 46°11' W 002°01'1 1.3
2016-Aug-22 10:13N 46°11' W 001°59'6 8.8
2016-Aug-22 09:33N 46°11' W 001°51'7 7.2
2016-Aug-22 08:33N 46°09' W 001°41'7 7.1
2016-Aug-22 07:33N 46°03' W 001°35'8 8.2
2016-Aug-22 06:33N 46°10' W 001°41'7 7.5
2016-Aug-22 05:34N 46°16' W 001°47'10 9.7
2016-Aug-22 04:33N 46°26' W 001°51'10 9.5
2016-Aug-22 03:33N 46°35' W 001°55'7 7.0
2016-Aug-22 02:33N 46°42' W 001°57'  
Track history (hours):
 
Tides and Currents Weather Stations Pressure Air Temp Water Temp Dewpoint Dewpoint Depression Visibility Wind Speed Wind Dir Waves Ship Positions

F/V Jeremi Simon

Last reported at 2016-Aug-30 16:33 UTC. Time now 2016-Aug-30 17:06 UTC.
Position N 46°42' W 001°57'.

Length 20 m.

Type: Other ship. MMSI: 227415000.

Date/timePositionNaut miles runAvg speedWind from/ knotsBaromVisibWave heightAir tempDewpointWater temp
2016-Aug-30 16:33N 46°42' W 001°57'10 9.6
2016-Aug-30 15:33N 46°32' W 001°54'1010.0
2016-Aug-30 14:33N 46°22' W 001°52'1 0.7
2016-Aug-30 13:33N 46°22' W 001°52'1 1.5
2016-Aug-30 12:33N 46°21' W 001°54'2 2.2
2016-Aug-30 11:33N 46°23' W 001°52'2 2.4
2016-Aug-30 10:33N 46°20' W 001°52'5 4.6
2016-Aug-30 09:33N 46°24' W 001°48'7 7.1
2016-Aug-30 08:33N 46°17' W 001°43'3 2.7
2016-Aug-30 07:33N 46°20' W 001°42'3 2.9
2016-Aug-30 06:33N 46°23' W 001°42'2 2.0
2016-Aug-30 05:33N 46°23' W 001°44'9 8.8
2016-Aug-30 04:33N 46°30' W 001°53'9 9.4
2016-Aug-30 03:33N 46°39' W 001°56'3 3.1
2016-Aug-30 02:33N 46°42' W 001°57'0 0.0
2016-Aug-29 14:26N 46°42' W 001°57'0 0.1
2016-Aug-29 13:33N 46°42' W 001°57'3 2.9
2016-Aug-29 12:33N 46°39' W 001°57'10 9.6
2016-Aug-29 11:33N 46°30' W 001°52'9 9.3
2016-Aug-29 10:33N 46°24' W 001°42'2 1.6
2016-Aug-29 09:33N 46°22' W 001°42'1 1.0
2016-Aug-29 08:33N 46°22' W 001°44'1 0.8
2016-Aug-29 07:33N 46°23' W 001°43'19 4.9
2016-Aug-29 03:33N 46°39' W 001°57'4 0.2
2016-Aug-28 03:24N 46°36' W 001°56'6 0.1
2016-Aug-26 09:26N 46°42' W 001°57'0 0.0
2016-Aug-26 08:07N 46°42' W 001°57'0 0.0
2016-Aug-26 07:09N 46°42' W 001°57'0 0.0
2016-Aug-26 06:29N 46°42' W 001°57'0 0.0
2016-Aug-25 18:04N 46°42' W 001°57'0 0.0
2016-Aug-25 17:33N 46°42' W 001°57'0 0.0
2016-Aug-25 16:33N 46°42' W 001°57'2 1.7
2016-Aug-25 15:33N 46°40' W 001°57'6 6.3
2016-Aug-25 14:33N 46°34' W 001°55'1010.4
2016-Aug-25 13:33N 46°24' W 001°51'9 9.3
2016-Aug-25 12:33N 46°16' W 001°45'4 3.7
2016-Aug-25 11:33N 46°12' W 001°43'1 1.3
2016-Aug-25 10:33N 46°11' W 001°42'3 3.1
2016-Aug-25 09:33N 46°14' W 001°44'10 9.2
2016-Aug-25 08:31N 46°05' W 001°38'3 2.5
2016-Aug-25 07:27N 46°03' W 001°38'1 0.7
2016-Aug-25 06:33N 46°02' W 001°38'3 1.3
2016-Aug-25 04:33N 46°04' W 001°36'1 0.8
2016-Aug-25 03:33N 46°04' W 001°37'0 0.5
2016-Aug-25 02:32N 46°03' W 001°37'7 6.7
2016-Aug-25 01:33N 46°09' W 001°40'9 9.2
2016-Aug-25 00:33N 46°18' W 001°46'9 9.3
2016-Aug-24 23:33N 46°26' W 001°51'9 9.3
2016-Aug-24 22:33N 46°35' W 001°55'7 6.8
2016-Aug-24 21:33N 46°42' W 001°57'0 0.0
2016-Aug-24 20:33N 46°42' W 001°57'0 0.0
2016-Aug-24 19:33N 46°42' W 001°57'0 0.0
2016-Aug-24 18:29N 46°42' W 001°57'0 0.0
2016-Aug-24 17:32N 46°42' W 001°57'0 0.1
2016-Aug-24 16:33N 46°42' W 001°57'3 3.5
2016-Aug-24 15:33N 46°38' W 001°56'1010.2
2016-Aug-24 14:33N 46°29' W 001°51'1010.2
2016-Aug-24 13:33N 46°19' W 001°46'1010.2
2016-Aug-24 12:33N 46°10' W 001°40'7 6.8
2016-Aug-24 11:31N 46°03' W 001°37'0 0.3
2016-Aug-24 10:32N 46°03' W 001°36'1 0.6
2016-Aug-24 09:33N 46°02' W 001°37'7 6.8
2016-Aug-24 08:31N 46°09' W 001°40'3 3.0
2016-Aug-24 07:33N 46°07' W 001°37'6 5.7
2016-Aug-24 06:33N 46°12' W 001°42'20 9.8
2016-Aug-24 04:33N 46°30' W 001°52'10 9.8
2016-Aug-24 03:33N 46°39' W 001°56'2 0.2
2016-Aug-23 16:09N 46°42' W 001°57'0 0.2
2016-Aug-23 15:33N 46°42' W 001°57'2 1.6
2016-Aug-23 14:33N 46°40' W 001°57'1 1.3
2016-Aug-23 13:33N 46°39' W 001°56'1010.5
2016-Aug-23 12:33N 46°29' W 001°52'1110.6
2016-Aug-23 11:33N 46°19' W 001°47'5 4.8
2016-Aug-23 10:33N 46°15' W 001°43'1 0.9
2016-Aug-23 09:31N 46°15' W 001°44'1 1.1
2016-Aug-23 08:33N 46°16' W 001°45'1 0.6
2016-Aug-23 07:27N 46°16' W 001°45'3 3.2
2016-Aug-23 06:34N 46°14' W 001°43'3 3.0
2016-Aug-23 05:34N 46°16' W 001°45'10 9.6
2016-Aug-23 04:33N 46°25' W 001°50'10 9.7
2016-Aug-23 03:34N 46°35' W 001°54'7 7.3
2016-Aug-23 02:33N 46°42' W 001°57'0 0.0
2016-Aug-23 01:34N 46°42' W 001°57'0 0.0
2016-Aug-23 00:34N 46°42' W 001°57'0 0.0
2016-Aug-22 23:34N 46°42' W 001°57'0 0.0
2016-Aug-22 22:33N 46°42' W 001°57'0 0.0
2016-Aug-22 21:33N 46°42' W 001°57'0 0.1
2016-Aug-22 20:33N 46°42' W 001°57'0 0.0
2016-Aug-22 19:33N 46°42' W 001°57'8 7.8
2016-Aug-22 18:34N 46°34' W 001°54'10 9.8
2016-Aug-22 17:33N 46°25' W 001°49'10 9.5
2016-Aug-22 16:33N 46°16' W 001°43'2 2.5
2016-Aug-22 15:33N 46°14' W 001°43'0 0.1
2016-Aug-22 14:34N 46°14' W 001°44'2 2.3
2016-Aug-22 13:33N 46°11' W 001°43'12 5.2
2016-Aug-22 11:15N 46°11' W 002°01'1 1.3
2016-Aug-22 10:13N 46°11' W 001°59'6 8.8
2016-Aug-22 09:33N 46°11' W 001°51'7 7.2
2016-Aug-22 08:33N 46°09' W 001°41'7 7.1
2016-Aug-22 07:33N 46°03' W 001°35'8 8.2
2016-Aug-22 06:33N 46°10' W 001°41'7 7.5
2016-Aug-22 05:34N 46°16' W 001°47'10 9.7
2016-Aug-22 04:33N 46°26' W 001°51'10 9.5
2016-Aug-22 03:33N 46°35' W 001°55'7 7.0
2016-Aug-22 02:33N 46°42' W 001°57'  

Dump ship's entire track history